sensor_id;sensor_type;location;lat;lon;timestamp;P1;durP1;ratioP1;P2;durP2;ratioP2
11907;SDS011;6014;47.690;9.130;2023-04-24T00:01:28;1.23;;;0.90;;
11907;SDS011;6014;47.690;9.130;2023-04-24T00:04:02;1.40;;;1.00;;
11907;SDS011;6014;47.690;9.130;2023-04-24T00:09:40;1.50;;;1.02;;
11907;SDS011;6014;47.690;9.130;2023-04-24T00:12:19;1.63;;;0.90;;
11907;SDS011;6014;47.690;9.130;2023-04-24T00:14:47;1.88;;;1.25;;
11907;SDS011;6014;47.690;9.130;2023-04-24T00:17:19;3.38;;;1.00;;
11907;SDS011;6014;47.690;9.130;2023-04-24T00:19:47;1.43;;;0.93;;
11907;SDS011;6014;47.690;9.130;2023-04-24T00:22:17;2.63;;;1.10;;
11907;SDS011;6014;47.690;9.130;2023-04-24T00:25:08;5.07;;;1.40;;
11907;SDS011;6014;47.690;9.130;2023-04-24T00:31:07;2.43;;;1.23;;
11907;SDS011;6014;47.690;9.130;2023-04-24T00:33:53;1.38;;;0.90;;
11907;SDS011;6014;47.690;9.130;2023-04-24T00:36:31;4.10;;;1.27;;
11907;SDS011;6014;47.690;9.130;2023-04-24T00:39:13;1.30;;;0.97;;
11907;SDS011;6014;47.690;9.130;2023-04-24T00:41:54;1.42;;;0.80;;
11907;SDS011;6014;47.690;9.130;2023-04-24T00:44:34;0.77;;;0.73;;
11907;SDS011;6014;47.690;9.130;2023-04-24T00:47:13;1.07;;;0.80;;
11907;SDS011;6014;47.690;9.130;2023-04-24T00:50:08;2.00;;;1.10;;
11907;SDS011;6014;47.690;9.130;2023-04-24T00:53:00;1.50;;;1.07;;
11907;SDS011;6014;47.690;9.130;2023-04-24T00:55:36;1.90;;;1.00;;
11907;SDS011;6014;47.690;9.130;2023-04-24T00:58:13;2.27;;;1.40;;
11907;SDS011;6014;47.690;9.130;2023-04-24T01:00:49;2.93;;;1.20;;
11907;SDS011;6014;47.690;9.130;2023-04-24T01:03:24;2.57;;;1.23;;
11907;SDS011;6014;47.690;9.130;2023-04-24T01:06:12;2.37;;;1.30;;
11907;SDS011;6014;47.690;9.130;2023-04-24T01:08:46;1.20;;;0.90;;
11907;SDS011;6014;47.690;9.130;2023-04-24T01:11:23;1.87;;;1.10;;
11907;SDS011;6014;47.690;9.130;2023-04-24T01:14:14;1.27;;;0.97;;
11907;SDS011;6014;47.690;9.130;2023-04-24T01:16:56;3.57;;;1.50;;
11907;SDS011;6014;47.690;9.130;2023-04-24T01:19:31;1.70;;;1.10;;
11907;SDS011;6014;47.690;9.130;2023-04-24T01:24:43;1.47;;;0.87;;
11907;SDS011;6014;47.690;9.130;2023-04-24T01:27:17;0.75;;;0.60;;
11907;SDS011;6014;47.690;9.130;2023-04-24T01:29:49;1.25;;;0.95;;
11907;SDS011;6014;47.690;9.130;2023-04-24T01:32:27;0.82;;;0.70;;
11907;SDS011;6014;47.690;9.130;2023-04-24T01:35:04;0.60;;;0.60;;
11907;SDS011;6014;47.690;9.130;2023-04-24T01:37:47;1.88;;;0.70;;
11907;SDS011;6014;47.690;9.130;2023-04-24T01:40:40;1.27;;;0.80;;
11907;SDS011;6014;47.690;9.130;2023-04-24T01:43:14;0.73;;;0.68;;
11907;SDS011;6014;47.690;9.130;2023-04-24T01:46:05;0.67;;;0.60;;
11907;SDS011;6014;47.690;9.130;2023-04-24T01:48:58;0.87;;;0.60;;
11907;SDS011;6014;47.690;9.130;2023-04-24T01:51:35;0.60;;;0.57;;
11907;SDS011;6014;47.690;9.130;2023-04-24T01:54:17;0.73;;;0.70;;
11907;SDS011;6014;47.690;9.130;2023-04-24T01:56:57;1.50;;;0.67;;
11907;SDS011;6014;47.690;9.130;2023-04-24T01:59:35;0.90;;;0.60;;
11907;SDS011;6014;47.690;9.130;2023-04-24T02:02:14;2.50;;;0.97;;
11907;SDS011;6014;47.690;9.130;2023-04-24T02:04:42;0.87;;;0.50;;
11907;SDS011;6014;47.690;9.130;2023-04-24T02:07:11;0.40;;;0.40;;
11907;SDS011;6014;47.690;9.130;2023-04-24T02:09:41;0.43;;;0.43;;
11907;SDS011;6014;47.690;9.130;2023-04-24T02:12:09;0.80;;;0.60;;
11907;SDS011;6014;47.690;9.130;2023-04-24T02:14:37;0.60;;;0.60;;
11907;SDS011;6014;47.690;9.130;2023-04-24T02:17:05;1.00;;;0.70;;
11907;SDS011;6014;47.690;9.130;2023-04-24T02:19:33;1.00;;;0.70;;
11907;SDS011;6014;47.690;9.130;2023-04-24T02:22:02;0.50;;;0.50;;
11907;SDS011;6014;47.690;9.130;2023-04-24T02:24:36;0.70;;;0.50;;
11907;SDS011;6014;47.690;9.130;2023-04-24T02:27:14;0.70;;;0.70;;
11907;SDS011;6014;47.690;9.130;2023-04-24T02:29:45;0.50;;;0.50;;
11907;SDS011;6014;47.690;9.130;2023-04-24T02:32:14;1.23;;;0.70;;
11907;SDS011;6014;47.690;9.130;2023-04-24T02:34:42;0.60;;;0.60;;
11907;SDS011;6014;47.690;9.130;2023-04-24T02:37:19;0.80;;;0.60;;
11907;SDS011;6014;47.690;9.130;2023-04-24T02:39:51;0.53;;;0.53;;
11907;SDS011;6014;47.690;9.130;2023-04-24T02:42:19;1.53;;;0.60;;
11907;SDS011;6014;47.690;9.130;2023-04-24T02:44:47;0.40;;;0.40;;
11907;SDS011;6014;47.690;9.130;2023-04-24T02:47:17;6.40;;;0.70;;
11907;SDS011;6014;47.690;9.130;2023-04-24T02:49:45;1.13;;;0.67;;
11907;SDS011;6014;47.690;9.130;2023-04-24T02:52:13;1.70;;;0.50;;
11907;SDS011;6014;47.690;9.130;2023-04-24T02:54:42;0.63;;;0.63;;
11907;SDS011;6014;47.690;9.130;2023-04-24T02:57:12;0.70;;;0.70;;
11907;SDS011;6014;47.690;9.130;2023-04-24T02:59:41;0.83;;;0.53;;
11907;SDS011;6014;47.690;9.130;2023-04-24T03:02:10;3.13;;;0.70;;
11907;SDS011;6014;47.690;9.130;2023-04-24T03:04:38;0.67;;;0.60;;
11907;SDS011;6014;47.690;9.130;2023-04-24T03:07:06;0.70;;;0.60;;
11907;SDS011;6014;47.690;9.130;2023-04-24T03:09:35;1.07;;;0.70;;
11907;SDS011;6014;47.690;9.130;2023-04-24T03:12:03;0.50;;;0.50;;
11907;SDS011;6014;47.690;9.130;2023-04-24T03:14:33;0.60;;;0.50;;
11907;SDS011;6014;47.690;9.130;2023-04-24T03:17:01;1.13;;;0.60;;
11907;SDS011;6014;47.690;9.130;2023-04-24T03:19:29;0.60;;;0.60;;
11907;SDS011;6014;47.690;9.130;2023-04-24T03:21:58;0.60;;;0.60;;
11907;SDS011;6014;47.690;9.130;2023-04-24T03:24:26;0.63;;;0.60;;
11907;SDS011;6014;47.690;9.130;2023-04-24T03:26:54;0.63;;;0.63;;
11907;SDS011;6014;47.690;9.130;2023-04-24T03:29:23;0.50;;;0.50;;
11907;SDS011;6014;47.690;9.130;2023-04-24T03:31:52;1.47;;;0.80;;
11907;SDS011;6014;47.690;9.130;2023-04-24T03:34:21;0.50;;;0.50;;
11907;SDS011;6014;47.690;9.130;2023-04-24T03:36:49;0.67;;;0.60;;
11907;SDS011;6014;47.690;9.130;2023-04-24T03:39:17;0.57;;;0.57;;
11907;SDS011;6014;47.690;9.130;2023-04-24T03:41:45;2.70;;;0.67;;
11907;SDS011;6014;47.690;9.130;2023-04-24T03:44:13;0.73;;;0.60;;
11907;SDS011;6014;47.690;9.130;2023-04-24T03:46:41;0.93;;;0.73;;
11907;SDS011;6014;47.690;9.130;2023-04-24T03:49:10;0.87;;;0.70;;
11907;SDS011;6014;47.690;9.130;2023-04-24T03:51:38;2.53;;;0.60;;
11907;SDS011;6014;47.690;9.130;2023-04-24T03:54:07;0.40;;;0.40;;
11907;SDS011;6014;47.690;9.130;2023-04-24T03:56:35;0.93;;;0.80;;
11907;SDS011;6014;47.690;9.130;2023-04-24T03:59:03;0.43;;;0.43;;
11907;SDS011;6014;47.690;9.130;2023-04-24T04:01:31;0.67;;;0.67;;
11907;SDS011;6014;47.690;9.130;2023-04-24T04:04:02;0.30;;;0.30;;
11907;SDS011;6014;47.690;9.130;2023-04-24T04:06:33;0.57;;;0.50;;
11907;SDS011;6014;47.690;9.130;2023-04-24T04:09:02;0.40;;;0.40;;
11907;SDS011;6014;47.690;9.130;2023-04-24T04:11:30;0.37;;;0.37;;
11907;SDS011;6014;47.690;9.130;2023-04-24T04:13:58;0.87;;;0.60;;
11907;SDS011;6014;47.690;9.130;2023-04-24T04:16:26;0.43;;;0.43;;
11907;SDS011;6014;47.690;9.130;2023-04-24T04:18:54;0.50;;;0.40;;
11907;SDS011;6014;47.690;9.130;2023-04-24T04:21:22;0.40;;;0.40;;
11907;SDS011;6014;47.690;9.130;2023-04-24T04:23:52;0.67;;;0.50;;
11907;SDS011;6014;47.690;9.130;2023-04-24T04:26:20;0.33;;;0.33;;
11907;SDS011;6014;47.690;9.130;2023-04-24T04:28:52;0.80;;;0.60;;
11907;SDS011;6014;47.690;9.130;2023-04-24T04:31:20;0.47;;;0.47;;
11907;SDS011;6014;47.690;9.130;2023-04-24T04:33:51;0.40;;;0.40;;
11907;SDS011;6014;47.690;9.130;2023-04-24T04:36:19;0.70;;;0.70;;
11907;SDS011;6014;47.690;9.130;2023-04-24T04:38:47;0.50;;;0.50;;
11907;SDS011;6014;47.690;9.130;2023-04-24T04:41:17;0.43;;;0.43;;
11907;SDS011;6014;47.690;9.130;2023-04-24T04:43:46;0.40;;;0.40;;
11907;SDS011;6014;47.690;9.130;2023-04-24T04:46:14;2.65;;;0.70;;
11907;SDS011;6014;47.690;9.130;2023-04-24T04:48:43;1.20;;;0.77;;
11907;SDS011;6014;47.690;9.130;2023-04-24T04:51:11;0.53;;;0.50;;
11907;SDS011;6014;47.690;9.130;2023-04-24T04:53:40;0.90;;;0.60;;
11907;SDS011;6014;47.690;9.130;2023-04-24T04:56:08;0.70;;;0.50;;
11907;SDS011;6014;47.690;9.130;2023-04-24T04:58:37;2.00;;;0.60;;
11907;SDS011;6014;47.690;9.130;2023-04-24T05:01:05;0.57;;;0.57;;
11907;SDS011;6014;47.690;9.130;2023-04-24T05:03:34;0.50;;;0.50;;
11907;SDS011;6014;47.690;9.130;2023-04-24T05:06:04;0.60;;;0.60;;
11907;SDS011;6014;47.690;9.130;2023-04-24T05:08:35;0.63;;;0.50;;
11907;SDS011;6014;47.690;9.130;2023-04-24T05:11:03;0.70;;;0.70;;
11907;SDS011;6014;47.690;9.130;2023-04-24T05:13:32;0.50;;;0.50;;
11907;SDS011;6014;47.690;9.130;2023-04-24T05:16:07;0.33;;;0.33;;
11907;SDS011;6014;47.690;9.130;2023-04-24T05:18:36;0.37;;;0.37;;
11907;SDS011;6014;47.690;9.130;2023-04-24T05:21:05;0.33;;;0.33;;
11907;SDS011;6014;47.690;9.130;2023-04-24T05:23:33;1.27;;;0.67;;
11907;SDS011;6014;47.690;9.130;2023-04-24T05:26:03;0.67;;;0.67;;
11907;SDS011;6014;47.690;9.130;2023-04-24T05:28:33;0.30;;;0.30;;
11907;SDS011;6014;47.690;9.130;2023-04-24T05:31:03;0.50;;;0.40;;
11907;SDS011;6014;47.690;9.130;2023-04-24T05:33:32;0.50;;;0.50;;
11907;SDS011;6014;47.690;9.130;2023-04-24T05:36:00;0.50;;;0.50;;
11907;SDS011;6014;47.690;9.130;2023-04-24T05:38:28;0.50;;;0.50;;
11907;SDS011;6014;47.690;9.130;2023-04-24T05:41:01;3.40;;;0.80;;
11907;SDS011;6014;47.690;9.130;2023-04-24T05:43:29;1.03;;;0.60;;
11907;SDS011;6014;47.690;9.130;2023-04-24T05:45:57;1.50;;;0.50;;
11907;SDS011;6014;47.690;9.130;2023-04-24T05:50:59;0.53;;;0.53;;
11907;SDS011;6014;47.690;9.130;2023-04-24T05:53:27;1.10;;;0.80;;
11907;SDS011;6014;47.690;9.130;2023-04-24T05:55:55;1.43;;;0.70;;
11907;SDS011;6014;47.690;9.130;2023-04-24T05:58:23;1.97;;;0.67;;
11907;SDS011;6014;47.690;9.130;2023-04-24T06:00:51;0.70;;;0.57;;
11907;SDS011;6014;47.690;9.130;2023-04-24T06:03:19;2.07;;;0.90;;
11907;SDS011;6014;47.690;9.130;2023-04-24T06:05:49;0.83;;;0.67;;
11907;SDS011;6014;47.690;9.130;2023-04-24T06:08:20;1.30;;;0.80;;
11907;SDS011;6014;47.690;9.130;2023-04-24T06:10:48;1.07;;;0.90;;
11907;SDS011;6014;47.690;9.130;2023-04-24T06:13:16;1.53;;;1.10;;
11907;SDS011;6014;47.690;9.130;2023-04-24T06:15:46;0.97;;;0.90;;
11907;SDS011;6014;47.690;9.130;2023-04-24T06:21:11;0.70;;;0.70;;
11907;SDS011;6014;47.690;9.130;2023-04-24T06:23:55;1.73;;;1.10;;
11907;SDS011;6014;47.690;9.130;2023-04-24T06:26:33;1.43;;;0.90;;
11907;SDS011;6014;47.690;9.130;2023-04-24T06:29:14;1.00;;;0.80;;
11907;SDS011;6014;47.690;9.130;2023-04-24T06:31:58;1.27;;;0.90;;
11907;SDS011;6014;47.690;9.130;2023-04-24T06:34:35;2.07;;;1.13;;
11907;SDS011;6014;47.690;9.130;2023-04-24T06:37:17;1.25;;;0.85;;
11907;SDS011;6014;47.690;9.130;2023-04-24T06:39:51;1.33;;;0.98;;
11907;SDS011;6014;47.690;9.130;2023-04-24T06:42:37;1.65;;;1.02;;
11907;SDS011;6014;47.690;9.130;2023-04-24T06:45:18;1.60;;;1.05;;
11907;SDS011;6014;47.690;9.130;2023-04-24T06:47:51;2.13;;;1.08;;
11907;SDS011;6014;47.690;9.130;2023-04-24T06:50:28;1.95;;;1.10;;
11907;SDS011;6014;47.690;9.130;2023-04-24T06:53:07;2.23;;;1.30;;
11907;SDS011;6014;47.690;9.130;2023-04-24T06:55:51;3.28;;;1.17;;
11907;SDS011;6014;47.690;9.130;2023-04-24T06:58:36;4.10;;;1.33;;
11907;SDS011;6014;47.690;9.130;2023-04-24T07:01:16;2.20;;;1.20;;
11907;SDS011;6014;47.690;9.130;2023-04-24T07:03:53;1.02;;;0.90;;
11907;SDS011;6014;47.690;9.130;2023-04-24T07:06:31;2.63;;;1.38;;
11907;SDS011;6014;47.690;9.130;2023-04-24T07:09:07;1.27;;;0.95;;
11907;SDS011;6014;47.690;9.130;2023-04-24T07:11:43;3.33;;;1.35;;
11907;SDS011;6014;47.690;9.130;2023-04-24T07:14:18;0.75;;;0.70;;
11907;SDS011;6014;47.690;9.130;2023-04-24T07:17:08;3.00;;;1.67;;
11907;SDS011;6014;47.690;9.130;2023-04-24T07:19:46;2.55;;;1.10;;
11907;SDS011;6014;47.690;9.130;2023-04-24T07:22:18;3.17;;;1.45;;
11907;SDS011;6014;47.690;9.130;2023-04-24T07:24:52;4.00;;;1.20;;
11907;SDS011;6014;47.690;9.130;2023-04-24T07:27:24;2.28;;;1.30;;
11907;SDS011;6014;47.690;9.130;2023-04-24T07:29:57;1.50;;;1.00;;
11907;SDS011;6014;47.690;9.130;2023-04-24T07:32:28;2.03;;;0.98;;
11907;SDS011;6014;47.690;9.130;2023-04-24T07:35:05;2.08;;;1.35;;
11907;SDS011;6014;47.690;9.130;2023-04-24T07:37:42;2.17;;;1.30;;
11907;SDS011;6014;47.690;9.130;2023-04-24T07:40:15;1.63;;;1.20;;
11907;SDS011;6014;47.690;9.130;2023-04-24T07:42:51;2.20;;;1.40;;
11907;SDS011;6014;47.690;9.130;2023-04-24T07:45:22;2.28;;;1.50;;
11907;SDS011;6014;47.690;9.130;2023-04-24T07:47:58;5.85;;;1.52;;
11907;SDS011;6014;47.690;9.130;2023-04-24T07:50:36;2.17;;;1.10;;
11907;SDS011;6014;47.690;9.130;2023-04-24T07:53:12;2.13;;;1.00;;
11907;SDS011;6014;47.690;9.130;2023-04-24T07:56:00;4.65;;;1.70;;
11907;SDS011;6014;47.690;9.130;2023-04-24T07:58:41;3.63;;;1.30;;
11907;SDS011;6014;47.690;9.130;2023-04-24T08:01:17;2.97;;;1.25;;
11907;SDS011;6014;47.690;9.130;2023-04-24T08:03:55;2.38;;;1.35;;
11907;SDS011;6014;47.690;9.130;2023-04-24T08:06:37;2.13;;;1.08;;
11907;SDS011;6014;47.690;9.130;2023-04-24T08:09:17;2.58;;;1.27;;
11907;SDS011;6014;47.690;9.130;2023-04-24T08:11:50;3.25;;;1.35;;
11907;SDS011;6014;47.690;9.130;2023-04-24T08:14:24;3.83;;;1.42;;
11907;SDS011;6014;47.690;9.130;2023-04-24T08:17:41;2.72;;;1.20;;
11907;SDS011;6014;47.690;9.130;2023-04-24T08:20:32;1.88;;;1.20;;
11907;SDS011;6014;47.690;9.130;2023-04-24T08:23:38;1.95;;;1.33;;
11907;SDS011;6014;47.690;9.130;2023-04-24T08:26:16;1.27;;;0.93;;
11907;SDS011;6014;47.690;9.130;2023-04-24T08:28:54;1.92;;;1.10;;
11907;SDS011;6014;47.690;9.130;2023-04-24T08:31:30;3.15;;;1.50;;
11907;SDS011;6014;47.690;9.130;2023-04-24T08:34:09;1.50;;;1.13;;
11907;SDS011;6014;47.690;9.130;2023-04-24T08:36:47;1.73;;;0.90;;
11907;SDS011;6014;47.690;9.130;2023-04-24T08:39:29;2.75;;;1.25;;
11907;SDS011;6014;47.690;9.130;2023-04-24T08:42:09;2.92;;;1.38;;
11907;SDS011;6014;47.690;9.130;2023-04-24T08:44:51;3.70;;;1.33;;
11907;SDS011;6014;47.690;9.130;2023-04-24T08:47:34;5.18;;;1.30;;
11907;SDS011;6014;47.690;9.130;2023-04-24T08:50:39;1.95;;;1.20;;
11907;SDS011;6014;47.690;9.130;2023-04-24T08:53:25;2.08;;;1.27;;
11907;SDS011;6014;47.690;9.130;2023-04-24T08:56:03;3.97;;;1.33;;
11907;SDS011;6014;47.690;9.130;2023-04-24T08:58:37;1.23;;;1.00;;
11907;SDS011;6014;47.690;9.130;2023-04-24T09:01:12;2.47;;;1.20;;
11907;SDS011;6014;47.690;9.130;2023-04-24T09:03:49;2.03;;;1.17;;
11907;SDS011;6014;47.690;9.130;2023-04-24T09:06:44;1.52;;;1.10;;
11907;SDS011;6014;47.690;9.130;2023-04-24T09:09:26;2.65;;;1.83;;
11907;SDS011;6014;47.690;9.130;2023-04-24T09:12:14;2.05;;;1.10;;
11907;SDS011;6014;47.690;9.130;2023-04-24T09:14:52;3.15;;;1.20;;
11907;SDS011;6014;47.690;9.130;2023-04-24T09:17:26;4.13;;;1.80;;
11907;SDS011;6014;47.690;9.130;2023-04-24T09:20:08;1.98;;;1.15;;
11907;SDS011;6014;47.690;9.130;2023-04-24T09:22:47;3.13;;;1.33;;
11907;SDS011;6014;47.690;9.130;2023-04-24T09:25:30;4.30;;;1.52;;
11907;SDS011;6014;47.690;9.130;2023-04-24T09:31:02;3.85;;;0.93;;
11907;SDS011;6014;47.690;9.130;2023-04-24T09:33:41;4.45;;;1.58;;
11907;SDS011;6014;47.690;9.130;2023-04-24T09:36:31;2.10;;;1.13;;
11907;SDS011;6014;47.690;9.130;2023-04-24T09:39:21;2.60;;;1.55;;
11907;SDS011;6014;47.690;9.130;2023-04-24T09:41:53;4.10;;;1.75;;
11907;SDS011;6014;47.690;9.130;2023-04-24T09:44:27;2.50;;;1.40;;
11907;SDS011;6014;47.690;9.130;2023-04-24T09:47:02;4.18;;;1.23;;
11907;SDS011;6014;47.690;9.130;2023-04-24T09:49:45;2.55;;;1.23;;
11907;SDS011;6014;47.690;9.130;2023-04-24T09:52:56;2.50;;;1.13;;
11907;SDS011;6014;47.690;9.130;2023-04-24T09:58:38;2.60;;;1.50;;
11907;SDS011;6014;47.690;9.130;2023-04-24T10:01:16;1.92;;;1.05;;
11907;SDS011;6014;47.690;9.130;2023-04-24T10:04:04;1.40;;;0.93;;
11907;SDS011;6014;47.690;9.130;2023-04-24T10:06:49;5.30;;;1.50;;
11907;SDS011;6014;47.690;9.130;2023-04-24T10:09:27;2.60;;;1.33;;
11907;SDS011;6014;47.690;9.130;2023-04-24T10:12:12;2.20;;;1.25;;
11907;SDS011;6014;47.690;9.130;2023-04-24T10:14:52;2.75;;;1.30;;
11907;SDS011;6014;47.690;9.130;2023-04-24T10:17:31;3.17;;;1.20;;
11907;SDS011;6014;47.690;9.130;2023-04-24T10:20:15;2.55;;;1.63;;
11907;SDS011;6014;47.690;9.130;2023-04-24T10:26:03;3.38;;;1.30;;
11907;SDS011;6014;47.690;9.130;2023-04-24T10:28:51;2.25;;;1.42;;
11907;SDS011;6014;47.690;9.130;2023-04-24T10:31:30;1.98;;;1.20;;
11907;SDS011;6014;47.690;9.130;2023-04-24T10:34:15;2.55;;;1.40;;
11907;SDS011;6014;47.690;9.130;2023-04-24T10:37:14;2.75;;;1.30;;
11907;SDS011;6014;47.690;9.130;2023-04-24T10:39:55;2.28;;;1.35;;
11907;SDS011;6014;47.690;9.130;2023-04-24T10:42:43;2.03;;;1.10;;
11907;SDS011;6014;47.690;9.130;2023-04-24T10:45:34;3.67;;;1.40;;
11907;SDS011;6014;47.690;9.130;2023-04-24T10:48:18;6.40;;;2.05;;
11907;SDS011;6014;47.690;9.130;2023-04-24T10:51:10;2.05;;;1.02;;
11907;SDS011;6014;47.690;9.130;2023-04-24T10:53:49;4.97;;;1.20;;
11907;SDS011;6014;47.690;9.130;2023-04-24T10:56:21;1.60;;;1.02;;
11907;SDS011;6014;47.690;9.130;2023-04-24T10:59:12;3.22;;;1.40;;
11907;SDS011;6014;47.690;9.130;2023-04-24T11:01:59;3.35;;;1.55;;
11907;SDS011;6014;47.690;9.130;2023-04-24T11:04:41;2.92;;;1.70;;
11907;SDS011;6014;47.690;9.130;2023-04-24T11:07:28;2.63;;;1.15;;
11907;SDS011;6014;47.690;9.130;2023-04-24T11:10:27;3.53;;;1.70;;
11907;SDS011;6014;47.690;9.130;2023-04-24T11:13:09;3.53;;;1.33;;
11907;SDS011;6014;47.690;9.130;2023-04-24T11:15:47;3.05;;;1.10;;
11907;SDS011;6014;47.690;9.130;2023-04-24T11:19:11;4.45;;;1.60;;
11907;SDS011;6014;47.690;9.130;2023-04-24T11:22:13;2.45;;;1.30;;
11907;SDS011;6014;47.690;9.130;2023-04-24T11:24:53;2.63;;;1.52;;
11907;SDS011;6014;47.690;9.130;2023-04-24T11:27:25;2.90;;;1.23;;
11907;SDS011;6014;47.690;9.130;2023-04-24T11:30:10;3.35;;;1.48;;
11907;SDS011;6014;47.690;9.130;2023-04-24T11:33:05;1.33;;;1.00;;
11907;SDS011;6014;47.690;9.130;2023-04-24T11:35:57;2.15;;;1.30;;
11907;SDS011;6014;47.690;9.130;2023-04-24T11:38:33;2.85;;;1.25;;
11907;SDS011;6014;47.690;9.130;2023-04-24T11:41:04;3.38;;;1.58;;
11907;SDS011;6014;47.690;9.130;2023-04-24T11:44:05;1.17;;;1.02;;
11907;SDS011;6014;47.690;9.130;2023-04-24T11:46:51;2.05;;;1.23;;
11907;SDS011;6014;47.690;9.130;2023-04-24T11:53:00;2.58;;;1.50;;
11907;SDS011;6014;47.690;9.130;2023-04-24T11:55:47;2.40;;;0.98;;
11907;SDS011;6014;47.690;9.130;2023-04-24T11:58:24;2.35;;;1.17;;
11907;SDS011;6014;47.690;9.130;2023-04-24T12:01:11;3.10;;;1.65;;
11907;SDS011;6014;47.690;9.130;2023-04-24T12:04:00;1.90;;;1.30;;
11907;SDS011;6014;47.690;9.130;2023-04-24T12:09:46;1.92;;;0.93;;
11907;SDS011;6014;47.690;9.130;2023-04-24T12:15:31;4.57;;;1.38;;
11907;SDS011;6014;47.690;9.130;2023-04-24T12:18:12;2.38;;;1.40;;
11907;SDS011;6014;47.690;9.130;2023-04-24T12:24:08;2.25;;;1.35;;
11907;SDS011;6014;47.690;9.130;2023-04-24T12:26:51;3.42;;;1.60;;
11907;SDS011;6014;47.690;9.130;2023-04-24T12:29:32;3.75;;;1.65;;
11907;SDS011;6014;47.690;9.130;2023-04-24T12:32:15;4.75;;;1.90;;
11907;SDS011;6014;47.690;9.130;2023-04-24T12:35:00;3.05;;;1.50;;
11907;SDS011;6014;47.690;9.130;2023-04-24T12:37:46;3.90;;;1.52;;
11907;SDS011;6014;47.690;9.130;2023-04-24T12:40:19;4.13;;;1.45;;
11907;SDS011;6014;47.690;9.130;2023-04-24T12:43:13;4.72;;;1.65;;
11907;SDS011;6014;47.690;9.130;2023-04-24T12:45:54;1.25;;;1.00;;
11907;SDS011;6014;47.690;9.130;2023-04-24T12:48:52;3.75;;;1.50;;
11907;SDS011;6014;47.690;9.130;2023-04-24T12:51:30;2.92;;;1.00;;
11907;SDS011;6014;47.690;9.130;2023-04-24T12:54:02;4.00;;;1.33;;
11907;SDS011;6014;47.690;9.130;2023-04-24T12:56:45;2.90;;;1.30;;
11907;SDS011;6014;47.690;9.130;2023-04-24T12:59:37;2.42;;;1.30;;
11907;SDS011;6014;47.690;9.130;2023-04-24T13:02:15;2.90;;;1.42;;
11907;SDS011;6014;47.690;9.130;2023-04-24T13:05:02;3.75;;;1.50;;
11907;SDS011;6014;47.690;9.130;2023-04-24T13:07:50;2.17;;;1.42;;
11907;SDS011;6014;47.690;9.130;2023-04-24T13:10:34;3.03;;;1.25;;
11907;SDS011;6014;47.690;9.130;2023-04-24T13:13:45;1.35;;;1.00;;
11907;SDS011;6014;47.690;9.130;2023-04-24T13:16:27;2.42;;;0.98;;
11907;SDS011;6014;47.690;9.130;2023-04-24T13:18:55;2.42;;;1.10;;
11907;SDS011;6014;47.690;9.130;2023-04-24T13:21:23;2.25;;;1.20;;
11907;SDS011;6014;47.690;9.130;2023-04-24T13:23:52;4.05;;;1.55;;
11907;SDS011;6014;47.690;9.130;2023-04-24T13:26:20;3.60;;;1.60;;
11907;SDS011;6014;47.690;9.130;2023-04-24T13:28:50;2.90;;;1.35;;
11907;SDS011;6014;47.690;9.130;2023-04-24T13:31:18;1.55;;;0.98;;
11907;SDS011;6014;47.690;9.130;2023-04-24T13:33:46;2.47;;;1.27;;
11907;SDS011;6014;47.690;9.130;2023-04-24T13:36:14;3.33;;;1.67;;
11907;SDS011;6014;47.690;9.130;2023-04-24T13:38:43;2.13;;;1.05;;
11907;SDS011;6014;47.690;9.130;2023-04-24T13:41:12;2.35;;;1.30;;
11907;SDS011;6014;47.690;9.130;2023-04-24T13:43:40;4.72;;;1.42;;
11907;SDS011;6014;47.690;9.130;2023-04-24T13:46:11;3.08;;;1.40;;
11907;SDS011;6014;47.690;9.130;2023-04-24T13:48:39;7.60;;;1.80;;
11907;SDS011;6014;47.690;9.130;2023-04-24T13:51:07;2.15;;;1.10;;
11907;SDS011;6014;47.690;9.130;2023-04-24T13:53:35;2.78;;;1.35;;
11907;SDS011;6014;47.690;9.130;2023-04-24T13:56:05;2.90;;;1.50;;
11907;SDS011;6014;47.690;9.130;2023-04-24T13:58:34;2.05;;;1.23;;
11907;SDS011;6014;47.690;9.130;2023-04-24T14:01:06;2.83;;;1.25;;
11907;SDS011;6014;47.690;9.130;2023-04-24T14:03:35;1.83;;;1.30;;
11907;SDS011;6014;47.690;9.130;2023-04-24T14:06:05;2.50;;;1.15;;
11907;SDS011;6014;47.690;9.130;2023-04-24T14:08:34;2.47;;;1.30;;
11907;SDS011;6014;47.690;9.130;2023-04-24T14:11:02;3.60;;;1.42;;
11907;SDS011;6014;47.690;9.130;2023-04-24T14:13:31;4.10;;;1.42;;
11907;SDS011;6014;47.690;9.130;2023-04-24T14:15:59;3.47;;;1.30;;
11907;SDS011;6014;47.690;9.130;2023-04-24T14:18:30;2.10;;;1.20;;
11907;SDS011;6014;47.690;9.130;2023-04-24T14:21:01;4.88;;;1.38;;
11907;SDS011;6014;47.690;9.130;2023-04-24T14:23:29;4.50;;;1.48;;
11907;SDS011;6014;47.690;9.130;2023-04-24T14:25:58;3.72;;;1.42;;
11907;SDS011;6014;47.690;9.130;2023-04-24T14:28:26;2.35;;;1.48;;
11907;SDS011;6014;47.690;9.130;2023-04-24T14:30:54;4.35;;;1.35;;
11907;SDS011;6014;47.690;9.130;2023-04-24T14:33:28;2.70;;;1.55;;
11907;SDS011;6014;47.690;9.130;2023-04-24T14:35:56;5.47;;;1.83;;
11907;SDS011;6014;47.690;9.130;2023-04-24T14:38:25;7.18;;;1.83;;
11907;SDS011;6014;47.690;9.130;2023-04-24T14:40:53;4.28;;;1.35;;
11907;SDS011;6014;47.690;9.130;2023-04-24T14:43:33;2.58;;;1.10;;
11907;SDS011;6014;47.690;9.130;2023-04-24T14:46:01;2.00;;;1.48;;
11907;SDS011;6014;47.690;9.130;2023-04-24T14:48:31;2.70;;;1.20;;
11907;SDS011;6014;47.690;9.130;2023-04-24T14:50:59;2.03;;;1.17;;
11907;SDS011;6014;47.690;9.130;2023-04-24T14:53:29;2.20;;;1.13;;
11907;SDS011;6014;47.690;9.130;2023-04-24T14:55:57;2.00;;;1.20;;
11907;SDS011;6014;47.690;9.130;2023-04-24T14:58:27;1.95;;;1.20;;
11907;SDS011;6014;47.690;9.130;2023-04-24T15:05:58;1.92;;;1.20;;
11907;SDS011;6014;47.690;9.130;2023-04-24T15:08:28;3.05;;;1.35;;
11907;SDS011;6014;47.690;9.130;2023-04-24T15:10:56;1.75;;;1.20;;
11907;SDS011;6014;47.690;9.130;2023-04-24T15:13:25;2.72;;;1.80;;
11907;SDS011;6014;47.690;9.130;2023-04-24T15:15:53;1.73;;;0.98;;
11907;SDS011;6014;47.690;9.130;2023-04-24T15:18:21;3.53;;;1.48;;
11907;SDS011;6014;47.690;9.130;2023-04-24T15:20:49;2.42;;;1.30;;
11907;SDS011;6014;47.690;9.130;2023-04-24T15:23:18;3.28;;;1.23;;
11907;SDS011;6014;47.690;9.130;2023-04-24T15:25:47;1.13;;;0.95;;
11907;SDS011;6014;47.690;9.130;2023-04-24T15:28:15;3.05;;;1.52;;
11907;SDS011;6014;47.690;9.130;2023-04-24T15:30:44;2.88;;;1.58;;
11907;SDS011;6014;47.690;9.130;2023-04-24T15:33:12;1.98;;;1.27;;
11907;SDS011;6014;47.690;9.130;2023-04-24T15:35:40;3.75;;;1.50;;
11907;SDS011;6014;47.690;9.130;2023-04-24T15:38:08;2.63;;;1.27;;
11907;SDS011;6014;47.690;9.130;2023-04-24T15:40:37;3.13;;;1.40;;
11907;SDS011;6014;47.690;9.130;2023-04-24T15:43:06;2.00;;;1.23;;
11907;SDS011;6014;47.690;9.130;2023-04-24T15:45:34;3.25;;;1.30;;
11907;SDS011;6014;47.690;9.130;2023-04-24T15:48:03;2.10;;;1.25;;
11907;SDS011;6014;47.690;9.130;2023-04-24T15:53:08;3.08;;;1.40;;
11907;SDS011;6014;47.690;9.130;2023-04-24T15:55:37;2.30;;;1.20;;
11907;SDS011;6014;47.690;9.130;2023-04-24T15:58:07;3.17;;;1.80;;
11907;SDS011;6014;47.690;9.130;2023-04-24T16:00:35;3.03;;;1.60;;
11907;SDS011;6014;47.690;9.130;2023-04-24T16:03:03;3.92;;;1.40;;
11907;SDS011;6014;47.690;9.130;2023-04-24T16:05:35;3.10;;;1.70;;
11907;SDS011;6014;47.690;9.130;2023-04-24T16:08:03;3.50;;;1.55;;
11907;SDS011;6014;47.690;9.130;2023-04-24T16:10:31;2.50;;;1.38;;
11907;SDS011;6014;47.690;9.130;2023-04-24T16:13:01;3.05;;;1.50;;
11907;SDS011;6014;47.690;9.130;2023-04-24T16:15:31;2.40;;;1.23;;
11907;SDS011;6014;47.690;9.130;2023-04-24T16:18:01;3.35;;;1.60;;
11907;SDS011;6014;47.690;9.130;2023-04-24T16:20:29;4.30;;;1.88;;
11907;SDS011;6014;47.690;9.130;2023-04-24T16:22:57;2.67;;;1.30;;
11907;SDS011;6014;47.690;9.130;2023-04-24T16:25:26;2.45;;;1.40;;
11907;SDS011;6014;47.690;9.130;2023-04-24T16:27:54;3.83;;;1.52;;
11907;SDS011;6014;47.690;9.130;2023-04-24T16:30:31;4.50;;;1.70;;
11907;SDS011;6014;47.690;9.130;2023-04-24T16:32:59;3.88;;;1.40;;
11907;SDS011;6014;47.690;9.130;2023-04-24T16:35:32;4.03;;;1.83;;